Aérodrome :
LOGIN :

S'inscrire | Disclaimer

   EN    FR    IT 

 










Légende :    VFR   VFR Marginal   IFR   IFR Intensif   IFR Très Intensif
Visi : 
Plafond : 
>= 8 km
>= 3000ft
5 à 8 km
1000 à 3000 ft
1500m à 5 km
500 à 1000 ft
800 à 1500m
200 à 500 ft
< 800m
< 200 ft
Symboles :   Orages  Brouillard  Fortes neiges  Fortes précipitations  Vent > 20 kt
SIGMETs :   Divers  Orages  Givrage  Turbulence  Onde Orograph.  Cendres Volcan.






- Altitude de l'aérodrome : 290 ft
- Code IATA : ACI


EGJA - Alderney

DERNIER METAR :
  • 161250Z 27016KT 9999 FEW009 18/16 Q1015

METARs EXPIRÉS :
  • 161220Z 27017KT CAVOK 18/15 Q1014
  • 161150Z 27017KT CAVOK 17/15 Q1014
  • 161120Z 27017KT CAVOK 17/15 Q1014
  • 161050Z 27017KT CAVOK 17/15 Q1013
  • 161020Z 27017KT 9999 FEW037 17/15 Q1013
  • 160920Z 27016KT 9999 FEW007 17/15 Q1012
  • 160850Z 27016KT 9999 FEW007 16/14 Q1012
  • 160820Z 27013KT 9999 FEW010 16/15 Q1012

TAF TAF EGJA
Valide du 16 à 12h jusqu'au 16 à 21h UTC


161100Z 1612/1621 27014KT 9999 FEW010



MET'MAP, la Météo Aéronautique d'un coup d'oeil ! - Copyright ORBIFLY Décembre 2007 - Disclaimer

ORBIFLY MET'MAP TEAM :

Programmation & Développement : Alexandra Zaïnal
Sur une idée originale de : Baudouin d'Aumeries
Soutien technique & logistique : Manuel Goepfert
Assistance : Marc-Olivier Méhu




SOURCES & CREDITS :

   NOAA